Time;durP1;ratioP1;P1;durP2;ratioP2;P2;SDS_P1;SDS_P2;PMS_P1;PMS_P2;Temp;Humidity;BMP_temperature;BMP_pressure;BME280_temperature;BME280_humidity;BME280_pressure;Samples;Min_cycle;Max_cycle;Signal;HPM_P1;HPM_P2
2022/01/02 00:01:56;;;;;;;5.70;1.88;;;12.70;96.50;;;;;;5114070;28;20487;-75
2022/01/02 00:04:25;;;;;;;8.15;2.72;;;12.70;96.50;;;;;;5113926;28;20031;-75
2022/01/02 00:06:52;;;;;;;7.20;2.00;;;12.70;96.40;;;;;;5115503;28;20406;-76
2022/01/02 00:09:30;;;;;;;6.97;2.28;;;12.70;96.40;;;;;;5113991;28;20384;-76
2022/01/02 00:12:04;;;;;;;10.98;3.35;;;12.70;96.40;;;;;;5113640;28;20020;-76
2022/01/02 00:14:36;;;;;;;7.88;2.30;;;12.70;96.60;;;;;;5115124;28;20031;-76
2022/01/02 00:17:04;;;;;;;6.40;2.60;;;12.70;96.40;;;;;;5115151;28;20101;-76
2022/01/02 00:19:31;;;;;;;8.95;2.67;;;12.70;96.30;;;;;;5114922;28;20055;-76
2022/01/02 00:22:03;;;;;;;5.53;2.33;;;12.70;96.30;;;;;;5115070;28;20088;-76
2022/01/02 00:24:31;;;;;;;6.82;2.30;;;12.70;96.30;;;;;;5081331;28;20390;-76
2022/01/02 00:26:58;;;;;;;8.15;2.60;;;12.70;96.30;;;;;;5113807;28;20042;-76
2022/01/02 00:29:24;;;;;;;5.32;2.15;;;12.70;96.30;;;;;;5113483;28;20506;-76
2022/01/02 00:31:52;;;;;;;7.38;2.67;;;12.70;96.30;;;;;;5113615;28;20420;-76
2022/01/02 00:34:18;;;;;;;6.03;2.60;;;12.70;96.20;;;;;;5113416;28;20390;-76
2022/01/02 00:36:44;;;;;;;6.00;2.60;;;12.70;96.20;;;;;;5113720;28;20122;-76
2022/01/02 00:39:09;;;;;;;6.75;2.95;;;12.70;96.10;;;;;;5113573;28;20123;-76
2022/01/02 00:41:52;;;;;;;5.90;2.33;;;12.70;96.10;;;;;;5096322;28;20058;-76
2022/01/02 00:44:27;;;;;;;8.73;3.72;;;12.70;96.10;;;;;;5094131;28;20043;-76
2022/01/02 00:47:15;;;;;;;9.43;3.28;;;12.70;96.10;;;;;;5092832;28;20669;-76
2022/01/02 00:49:45;;;;;;;10.93;2.80;;;12.70;96.10;;;;;;5092947;28;21009;-75
2022/01/02 00:52:17;;;;;;;10.07;3.53;;;12.60;96.00;;;;;;5092609;28;20063;-76
2022/01/02 00:54:46;;;;;;;9.57;2.88;;;12.70;96.00;;;;;;5092812;28;20032;-75
2022/01/02 00:57:17;;;;;;;8.50;2.63;;;12.60;96.00;;;;;;5098038;28;20039;-75
2022/01/02 01:00:16;;;;;;;9.85;3.10;;;12.70;96.10;;;;;;5114520;28;20051;-77
2022/01/02 01:02:48;;;;;;;7.93;2.80;;;12.60;96.10;;;;;;5069333;28;20395;-76
2022/01/02 01:05:29;;;;;;;7.88;3.03;;;12.60;96.10;;;;;;5114248;28;20027;-75
2022/01/02 01:07:58;;;;;;;7.63;3.10;;;12.60;96.20;;;;;;5113063;28;20027;-76
2022/01/02 01:10:27;;;;;;;9.45;3.22;;;12.60;96.30;;;;;;5113264;28;20031;-76
2022/01/02 01:12:56;;;;;;;7.60;2.63;;;12.60;96.40;;;;;;5112665;28;20028;-76
2022/01/02 01:15:24;;;;;;;7.15;3.30;;;12.60;96.40;;;;;;5114118;28;20401;-76
2022/01/02 01:17:54;;;;;;;7.85;3.10;;;12.60;96.70;;;;;;5114187;28;20379;-77
2022/01/02 01:20:21;;;;;;;7.10;2.53;;;12.60;96.80;;;;;;5114164;28;20103;-76
2022/01/02 01:22:48;;;;;;;7.85;2.70;;;12.50;96.90;;;;;;5114107;28;20060;-77
2022/01/02 01:25:17;;;;;;;9.95;3.45;;;12.40;97.20;;;;;;5113863;28;20491;-77
2022/01/02 01:27:47;;;;;;;16.08;3.92;;;12.40;97.70;;;;;;5096472;28;20032;-77
2022/01/02 01:30:16;;;;;;;11.68;3.60;;;12.40;98.20;;;;;;5096328;28;20040;-78
2022/01/02 01:32:42;;;;;;;8.82;3.15;;;12.30;98.50;;;;;;5112995;28;20034;-77
2022/01/02 01:35:08;;;;;;;9.73;3.00;;;12.20;98.70;;;;;;5113886;28;20030;-74
2022/01/02 01:37:34;;;;;;;11.63;3.42;;;12.20;99.00;;;;;;5096068;28;20424;-77
2022/01/02 01:40:00;;;;;;;10.52;4.30;;;12.10;99.20;;;;;;5113359;28;20062;-77
2022/01/02 01:42:37;;;;;;;11.75;3.40;;;12.10;99.50;;;;;;5118133;28;20024;-75
2022/01/02 01:47:53;;;;;;;11.38;2.92;;;12.00;99.70;;;;;;5118135;28;20036;-75
2022/01/02 01:50:20;;;;;;;13.25;4.03;;;11.90;99.60;;;;;;5117837;28;20379;-76
2022/01/02 01:52:46;;;;;;;7.35;3.20;;;11.90;99.80;;;;;;5118068;28;20035;-75
2022/01/02 01:55:12;;;;;;;14.43;3.50;;;11.90;99.90;;;;;;5117896;28;20030;-76
2022/01/02 01:57:39;;;;;;;8.93;3.13;;;11.90;99.90;;;;;;5117779;28;20073;-76
2022/01/02 02:00:08;;;;;;;10.43;3.42;;;11.90;99.90;;;;;;5117509;28;20024;-75
2022/01/02 02:02:33;;;;;;;12.98;3.28;;;11.90;99.90;;;;;;5117868;28;20031;-76
2022/01/02 02:04:59;;;;;;;10.07;3.28;;;11.90;99.90;;;;;;5117560;28;20032;-76
2022/01/02 02:07:29;;;;;;;11.30;3.30;;;11.80;99.90;;;;;;5116421;28;20034;-75
2022/01/02 02:10:15;;;;;;;9.23;3.60;;;11.80;99.90;;;;;;5100155;28;20100;-76
2022/01/02 02:12:43;;;;;;;11.30;3.30;;;11.90;99.90;;;;;;5115917;28;20038;-76
2022/01/02 02:15:11;;;;;;;11.98;3.63;;;11.90;99.90;;;;;;5117837;28;20028;-76
2022/01/02 02:17:38;;;;;;;11.70;3.63;;;11.90;99.90;;;;;;5116427;28;20067;-76
2022/01/02 02:20:22;;;;;;;8.38;3.10;;;11.90;99.90;;;;;;5117395;28;20080;-75
2022/01/02 02:22:52;;;;;;;12.93;3.53;;;11.90;99.90;;;;;;5117207;28;20027;-76
2022/01/02 02:25:20;;;;;;;8.18;3.30;;;11.90;99.90;;;;;;5115834;28;20065;-76
2022/01/02 02:27:55;;;;;;;14.77;3.90;;;12.00;99.90;;;;;;5117117;28;20019;-76
2022/01/02 02:30:22;;;;;;;7.35;3.22;;;11.90;99.90;;;;;;5116738;28;20525;-75
2022/01/02 02:32:48;;;;;;;12.10;3.33;;;11.90;99.90;;;;;;5116295;28;20107;-77
2022/01/02 02:35:14;;;;;;;10.93;3.35;;;12.00;99.90;;;;;;5115574;28;20019;-78
2022/01/02 02:37:43;;;;;;;13.02;3.80;;;12.00;99.90;;;;;;5116799;28;20103;-76
2022/01/02 02:40:11;;;;;;;11.60;3.65;;;11.90;99.90;;;;;;5115604;28;20047;-75
2022/01/02 02:42:49;;;;;;;9.23;3.05;;;12.00;99.90;;;;;;5115989;28;20446;-75
2022/01/02 02:51:19;;;;;;;11.68;3.50;;;12.10;99.90;;;;;;5116833;28;20064;-75
2022/01/02 02:53:48;;;;;;;14.32;4.07;;;12.10;99.90;;;;;;5116416;28;20118;-76
2022/01/02 02:56:20;;;;;;;11.90;3.25;;;12.10;99.90;;;;;;5117025;28;20368;-75
2022/01/02 02:58:49;;;;;;;11.77;3.35;;;12.10;99.90;;;;;;5115539;28;20158;-75
2022/01/02 03:01:16;;;;;;;12.57;3.60;;;12.20;99.90;;;;;;5082362;28;20487;-75
2022/01/02 03:03:43;;;;;;;12.50;3.33;;;12.20;99.90;;;;;;5115519;28;20080;-76
2022/01/02 03:06:11;;;;;;;7.25;2.67;;;12.30;99.90;;;;;;5115349;28;20038;-76
2022/01/02 03:08:37;;;;;;;16.20;3.83;;;12.30;99.90;;;;;;5116425;28;20034;-76
2022/01/02 03:11:05;;;;;;;11.65;3.38;;;12.30;99.90;;;;;;5116353;28;20475;-78
2022/01/02 03:13:31;;;;;;;12.15;3.20;;;12.40;99.90;;;;;;5098553;28;20031;-75
2022/01/02 03:15:56;;;;;;;13.90;3.08;;;12.40;99.90;;;;;;5116398;28;20464;-75
2022/01/02 03:18:22;;;;;;;13.05;3.13;;;12.40;99.90;;;;;;5098257;28;20039;-75
2022/01/02 03:20:48;;;;;;;10.05;3.05;;;12.50;99.90;;;;;;5114891;28;20389;-76
2022/01/02 03:23:13;;;;;;;18.05;3.72;;;12.50;99.90;;;;;;5115247;28;20058;-76
2022/01/02 03:25:39;;;;;;;11.68;2.80;;;12.50;99.90;;;;;;5116595;28;20066;-76
2022/01/02 03:28:04;;;;;;;8.68;2.85;;;12.50;99.90;;;;;;5098060;28;20042;-76
2022/01/02 03:30:30;;;;;;;11.27;3.13;;;12.50;99.90;;;;;;5115939;28;20024;-76
2022/01/02 03:32:56;;;;;;;10.88;3.13;;;12.60;99.90;;;;;;5114635;28;20076;-75
2022/01/02 03:35:21;;;;;;;15.32;2.80;;;12.60;99.90;;;;;;5115771;28;20392;-76
2022/01/02 03:37:47;;;;;;;10.93;2.92;;;12.60;99.90;;;;;;5115856;28;20463;-75
2022/01/02 03:40:13;;;;;;;10.68;2.72;;;12.60;99.90;;;;;;5114707;28;20055;-76
2022/01/02 03:42:39;;;;;;;12.57;2.78;;;12.60;99.90;;;;;;5115810;28;20024;-77
2022/01/02 03:45:05;;;;;;;15.50;3.13;;;12.70;99.90;;;;;;5115708;28;20038;-76
2022/01/02 03:47:31;;;;;;;11.02;2.40;;;12.70;99.80;;;;;;5114403;28;20063;-75
2022/01/02 03:50:00;;;;;;;11.43;2.22;;;12.80;99.80;;;;;;5114765;28;20054;-74
2022/01/02 03:52:26;;;;;;;10.82;3.03;;;12.80;99.70;;;;;;5081550;28;20035;-75
2022/01/02 03:54:52;;;;;;;12.65;2.72;;;12.80;99.50;;;;;;5114395;28;20030;-76
2022/01/02 03:57:18;;;;;;;9.23;2.70;;;12.80;99.50;;;;;;5114390;28;20429;-75
2022/01/02 03:59:44;;;;;;;11.02;2.33;;;12.90;99.50;;;;;;5097486;28;20015;-77
2022/01/02 04:02:09;;;;;;;10.70;2.33;;;12.90;99.50;;;;;;5114469;28;20049;-76
2022/01/02 04:04:35;;;;;;;7.30;2.08;;;12.90;99.50;;;;;;5114981;28;20027;-76
2022/01/02 04:07:01;;;;;;;12.02;2.38;;;12.90;99.50;;;;;;5115425;28;20058;-75
2022/01/02 04:09:27;;;;;;;11.02;2.88;;;13.00;99.40;;;;;;5114395;28;20030;-76
2022/01/02 04:11:52;;;;;;;9.70;2.40;;;13.00;99.30;;;;;;5115363;28;20058;-75
2022/01/02 04:14:18;;;;;;;11.43;2.55;;;13.00;99.50;;;;;;5097380;28;20030;-75
2022/01/02 04:16:43;;;;;;;10.27;2.55;;;13.00;99.20;;;;;;5115466;28;20043;-75
2022/01/02 04:19:09;;;;;;;11.48;2.42;;;13.00;99.30;;;;;;5097387;28;20093;-75
2022/01/02 04:21:35;;;;;;;12.75;1.80;;;13.00;99.40;;;;;;5113730;28;20468;-75
2022/01/02 04:24:00;;;;;;;8.60;2.15;;;13.00;99.40;;;;;;5113573;28;20039;-75
2022/01/02 04:26:26;;;;;;;10.38;2.33;;;13.00;99.40;;;;;;5114958;28;20027;-75
2022/01/02 04:28:52;;;;;;;10.60;2.45;;;13.00;99.40;;;;;;5096864;28;20103;-76
2022/01/02 04:31:17;;;;;;;10.07;2.00;;;13.00;99.50;;;;;;5096665;28;20028;-75
2022/01/02 04:33:43;;;;;;;14.25;2.05;;;13.00;99.50;;;;;;5112974;28;20027;-75
2022/01/02 04:36:09;;;;;;;8.20;2.03;;;13.00;99.40;;;;;;5113081;28;20146;-75
2022/01/02 04:38:37;;;;;;;11.38;2.65;;;13.00;99.50;;;;;;5113354;28;20489;-75
2022/01/02 04:41:02;;;;;;;16.10;4.10;;;12.90;99.50;;;;;;5114376;28;20467;-75
2022/01/02 04:43:28;;;;;;;8.77;2.88;;;12.90;99.60;;;;;;5114727;28;20038;-76
2022/01/02 04:45:56;;;;;;;11.73;3.63;;;12.90;99.80;;;;;;5096958;28;20237;-75
2022/01/02 04:48:22;;;;;;;13.77;3.67;;;12.80;99.90;;;;;;5113173;28;20031;-76
2022/01/02 04:50:48;;;;;;;10.38;2.90;;;12.80;99.90;;;;;;5113000;28;20070;-74
2022/01/02 04:53:14;;;;;;;12.43;3.30;;;12.70;99.90;;;;;;5114366;28;20376;-76
2022/01/02 04:55:39;;;;;;;13.55;2.92;;;12.70;99.90;;;;;;5114597;28;20065;-77
2022/01/02 04:58:05;;;;;;;13.00;3.58;;;12.60;99.90;;;;;;5113458;28;20055;-77
2022/01/02 05:00:31;;;;;;;8.07;2.83;;;12.60;99.90;;;;;;5113416;28;20034;-77
2022/01/02 05:02:57;;;;;;;9.80;2.85;;;12.60;99.90;;;;;;5113274;28;20027;-77
2022/01/02 05:05:22;;;;;;;9.90;3.33;;;12.50;99.90;;;;;;5114159;28;20058;-77
2022/01/02 05:07:48;;;;;;;11.85;3.67;;;12.50;99.90;;;;;;5114014;28;20058;-77
2022/01/02 05:10:14;;;;;;;9.70;3.05;;;12.40;99.90;;;;;;5114126;28;20024;-77
2022/01/02 05:12:40;;;;;;;11.50;3.58;;;12.40;99.90;;;;;;5114014;28;20077;-76
2022/01/02 05:15:06;;;;;;;11.98;3.60;;;12.30;99.90;;;;;;5095841;28;20042;-76
2022/01/02 05:17:32;;;;;;;12.70;3.58;;;12.30;99.90;;;;;;5114146;28;20456;-77
2022/01/02 05:19:58;;;;;;;10.80;3.83;;;12.20;99.90;;;;;;5095880;28;20034;-77
2022/01/02 05:22:23;;;;;;;15.90;5.05;;;12.20;99.90;;;;;;5113905;28;20016;-77
2022/01/02 05:24:49;;;;;;;9.05;3.25;;;12.10;99.90;;;;;;5095781;28;20024;-76
2022/01/02 05:27:15;;;;;;;15.25;3.60;;;12.10;99.90;;;;;;5113542;28;20379;-75
2022/01/02 05:29:41;;;;;;;10.20;3.28;;;12.20;99.90;;;;;;5112475;28;20023;-75
2022/01/02 05:32:06;;;;;;;16.83;3.80;;;12.10;99.90;;;;;;5095612;28;20114;-75
2022/01/02 05:34:32;;;;;;;10.25;3.30;;;12.10;99.90;;;;;;5095803;28;20038;-75
2022/01/02 05:36:57;;;;;;;7.88;2.92;;;12.10;99.90;;;;;;5112740;28;20028;-75
2022/01/02 05:39:24;;;;;;;9.98;3.38;;;12.10;99.90;;;;;;5112400;28;20408;-76
2022/01/02 05:41:51;;;;;;;12.43;3.42;;;12.10;99.90;;;;;;5113652;28;20080;-76
2022/01/02 05:44:17;;;;;;;13.45;3.35;;;12.10;99.90;;;;;;5112778;28;20032;-75
2022/01/02 05:46:44;;;;;;;13.02;3.63;;;12.10;99.90;;;;;;5113874;28;20028;-75
2022/01/02 05:49:10;;;;;;;10.15;3.10;;;12.10;99.90;;;;;;5113668;28;20035;-75
2022/01/02 05:51:36;;;;;;;10.00;3.47;;;12.10;99.90;;;;;;5113579;28;20068;-75
2022/01/02 05:54:02;;;;;;;9.65;3.58;;;12.00;99.90;;;;;;5111919;28;20493;-76
2022/01/02 05:56:28;;;;;;;13.43;3.92;;;12.00;99.90;;;;;;5112348;28;20028;-75
2022/01/02 05:58:53;;;;;;;9.10;3.55;;;12.00;99.90;;;;;;5112257;28;20379;-76
2022/01/02 06:01:19;;;;;;;10.32;3.22;;;12.00;99.90;;;;;;5095529;28;20127;-75
2022/01/02 06:03:44;;;;;;;13.05;2.78;;;12.00;99.90;;;;;;5073510;28;20485;-75
2022/01/02 06:06:10;;;;;;;11.68;3.97;;;12.00;99.90;;;;;;5080166;28;20440;-76
2022/01/02 06:08:37;;;;;;;12.75;3.08;;;11.90;99.90;;;;;;5093707;28;20074;-76
2022/01/02 06:11:02;;;;;;;14.05;4.13;;;11.90;99.90;;;;;;5112109;28;20077;-76
2022/01/02 06:13:28;;;;;;;12.00;3.55;;;11.90;99.90;;;;;;5105906;28;20028;-76
2022/01/02 06:15:53;;;;;;;9.63;3.72;;;11.90;99.90;;;;;;5074812;28;20028;-76
2022/01/02 06:18:19;;;;;;;10.50;2.80;;;11.90;99.90;;;;;;5095088;28;20127;-76
2022/01/02 06:20:45;;;;;;;8.20;2.63;;;11.90;99.90;;;;;;5112523;28;20430;-76
2022/01/02 06:23:11;;;;;;;11.00;3.28;;;11.90;99.90;;;;;;5113289;28;20032;-74
2022/01/02 06:25:36;;;;;;;9.35;3.17;;;11.80;99.90;;;;;;5113220;28;20499;-73
2022/01/02 06:28:02;;;;;;;12.75;2.95;;;11.90;99.90;;;;;;5115565;28;20095;-74
2022/01/02 06:30:28;;;;;;;9.05;3.15;;;11.90;99.90;;;;;;5115827;28;20114;-76
2022/01/02 06:32:57;;;;;;;9.35;3.28;;;11.80;99.90;;;;;;5115700;28;20031;-76
2022/01/02 06:35:28;;;;;;;10.07;2.40;;;11.90;99.90;;;;;;5099442;28;20028;-76
2022/01/02 06:37:55;;;;;;;9.05;2.78;;;11.90;99.90;;;;;;5115804;28;20012;-76
2022/01/02 06:40:22;;;;;;;14.23;3.05;;;11.90;99.90;;;;;;5115538;28;20032;-75
2022/01/02 06:42:47;;;;;;;9.32;4.00;;;11.90;99.90;;;;;;5115932;28;20040;-75
2022/01/02 06:45:15;;;;;;;9.35;3.55;;;11.90;99.90;;;;;;5115445;28;20039;-76
2022/01/02 06:47:40;;;;;;;8.57;2.25;;;11.90;99.90;;;;;;5115571;28;20019;-76
2022/01/02 06:50:07;;;;;;;6.00;2.42;;;11.90;99.90;;;;;;5116190;28;20089;-75
2022/01/02 06:52:33;;;;;;;9.05;2.63;;;12.00;99.90;;;;;;5115278;28;20445;-76
2022/01/02 06:54:58;;;;;;;8.32;3.08;;;11.90;99.90;;;;;;5116780;28;20031;-75
2022/01/02 06:57:24;;;;;;;9.35;2.55;;;11.90;99.90;;;;;;5115464;28;20031;-75
2022/01/02 06:59:50;;;;;;;10.63;2.67;;;12.00;99.90;;;;;;5116490;28;20023;-76
2022/01/02 07:02:17;;;;;;;6.50;1.92;;;12.00;99.90;;;;;;5081422;28;20081;-76
2022/01/02 07:04:43;;;;;;;10.35;2.63;;;12.00;99.90;;;;;;5115240;28;20031;-76
2022/01/02 07:07:09;;;;;;;10.70;3.00;;;12.00;99.90;;;;;;5098140;28;20020;-75
2022/01/02 07:09:35;;;;;;;9.10;2.42;;;12.00;99.90;;;;;;5114930;28;20389;-76
2022/01/02 07:12:02;;;;;;;7.15;2.30;;;12.10;99.90;;;;;;5115226;28;20092;-75
2022/01/02 07:14:27;;;;;;;8.95;2.78;;;12.00;99.90;;;;;;5116311;28;20024;-75
2022/01/02 07:16:59;;;;;;;8.45;2.70;;;12.10;99.90;;;;;;5115077;28;20055;-75
2022/01/02 07:19:24;;;;;;;7.32;2.58;;;12.10;99.90;;;;;;5115183;28;20022;-75
2022/01/02 07:21:51;;;;;;;8.48;2.17;;;12.10;99.90;;;;;;5116034;28;20023;-76
2022/01/02 07:24:17;;;;;;;10.13;2.08;;;12.00;99.90;;;;;;5111935;28;20028;-76
2022/01/02 07:26:42;;;;;;;9.52;3.13;;;12.10;99.90;;;;;;5115069;28;20413;-75
2022/01/02 07:29:08;;;;;;;11.88;2.90;;;12.10;99.90;;;;;;5114511;28;20031;-76
2022/01/02 07:31:34;;;;;;;8.50;2.45;;;12.10;99.90;;;;;;5115922;28;20039;-75
2022/01/02 07:33:59;;;;;;;9.27;2.75;;;12.10;99.90;;;;;;5114716;28;20118;-76
2022/01/02 07:36:25;;;;;;;10.65;2.55;;;12.10;99.90;;;;;;5115185;28;20035;-76
2022/01/02 07:38:51;;;;;;;10.07;1.83;;;12.10;99.90;;;;;;5113371;28;20024;-76
2022/01/02 07:41:18;;;;;;;7.97;2.35;;;12.00;99.90;;;;;;5115250;28;20040;-75
2022/01/02 07:43:43;;;;;;;6.65;2.75;;;12.10;99.90;;;;;;5114610;28;20506;-75
2022/01/02 07:46:09;;;;;;;8.82;2.75;;;12.10;99.90;;;;;;5080967;28;20031;-75
2022/01/02 07:48:35;;;;;;;9.32;2.58;;;12.10;99.90;;;;;;5115312;28;20039;-75
2022/01/02 07:51:01;;;;;;;6.85;2.83;;;12.10;99.90;;;;;;5115068;28;20096;-75
2022/01/02 07:53:26;;;;;;;8.52;2.50;;;12.00;99.90;;;;;;5114158;28;20050;-75
2022/01/02 07:55:52;;;;;;;7.50;2.63;;;12.00;99.90;;;;;;5115721;28;20040;-74
2022/01/02 07:58:18;;;;;;;7.05;2.42;;;12.00;99.90;;;;;;5115009;28;20463;-76
2022/01/02 08:00:43;;;;;;;10.02;3.17;;;11.90;99.90;;;;;;5097367;28;20434;-75
2022/01/02 08:03:09;;;;;;;8.30;2.78;;;11.90;99.90;;;;;;5114148;28;20068;-76
2022/01/02 08:05:35;;;;;;;9.10;3.30;;;11.90;99.90;;;;;;5115624;28;20024;-76
2022/01/02 08:08:00;;;;;;;10.80;2.55;;;11.90;99.90;;;;;;5113763;28;20077;-76
2022/01/02 08:10:27;;;;;;;8.63;2.28;;;11.90;99.90;;;;;;5115373;28;20036;-76
2022/01/02 08:12:53;;;;;;;7.00;1.90;;;11.90;99.90;;;;;;5113412;28;20028;-76
2022/01/02 08:15:19;;;;;;;9.52;2.92;;;11.90;99.90;;;;;;5113548;28;20031;-76
2022/01/02 08:17:45;;;;;;;8.20;2.72;;;11.90;99.90;;;;;;5114933;28;20020;-76
2022/01/02 08:20:11;;;;;;;7.45;2.08;;;11.90;99.90;;;;;;5113581;28;20102;-76
2022/01/02 08:22:36;;;;;;;7.32;2.33;;;11.90;99.90;;;;;;5115185;28;20027;-76
2022/01/02 08:25:04;;;;;;;7.50;2.33;;;11.90;99.90;;;;;;5114931;28;20024;-76
2022/01/02 08:27:29;;;;;;;7.97;2.65;;;11.90;99.90;;;;;;5113597;28;20027;-75
2022/01/02 08:29:55;;;;;;;10.07;2.45;;;11.90;99.90;;;;;;5113526;28;20479;-76
2022/01/02 08:32:21;;;;;;;8.02;2.60;;;11.90;99.90;;;;;;5096351;28;20498;-76
2022/01/02 08:34:46;;;;;;;7.65;2.75;;;11.90;99.90;;;;;;5113809;28;20024;-76
2022/01/02 08:37:16;;;;;;;10.27;2.58;;;11.90;99.90;;;;;;5114954;28;20047;-76
2022/01/02 08:39:45;;;;;;;12.05;3.70;;;12.00;99.90;;;;;;5113334;28;20027;-76
2022/01/02 08:42:12;;;;;;;8.85;2.17;;;12.00;99.70;;;;;;5113396;28;20074;-75
2022/01/02 08:44:39;;;;;;;6.28;1.83;;;11.90;99.50;;;;;;5114702;28;20027;-75
2022/01/02 08:47:08;;;;;;;7.75;2.25;;;12.00;99.60;;;;;;5096648;28;20035;-75
2022/01/02 08:49:33;;;;;;;6.38;2.25;;;12.00;99.90;;;;;;5112739;28;20032;-76
2022/01/02 08:51:59;;;;;;;7.78;2.10;;;12.00;99.90;;;;;;5113379;28;20548;-76
2022/01/02 08:54:25;;;;;;;6.43;2.22;;;11.90;99.90;;;;;;5114667;28;20047;-77
2022/01/02 08:56:50;;;;;;;9.20;2.60;;;11.90;99.90;;;;;;5075785;28;20020;-77
2022/01/02 08:59:17;;;;;;;7.45;2.28;;;11.90;99.90;;;;;;5094387;28;20073;-77
2022/01/02 09:01:43;;;;;;;7.38;2.38;;;11.90;99.90;;;;;;5114161;28;20437;-76
2022/01/02 09:04:09;;;;;;;6.05;2.05;;;11.80;99.90;;;;;;5087391;28;20040;-76
2022/01/02 09:06:35;;;;;;;7.78;2.38;;;11.80;99.90;;;;;;5113644;28;20122;-77
2022/01/02 09:09:00;;;;;;;6.00;2.20;;;11.90;99.90;;;;;;5112705;28;20028;-78
2022/01/02 09:11:26;;;;;;;6.05;2.22;;;11.90;99.80;;;;;;5079285;28;20535;-77
2022/01/02 09:13:52;;;;;;;7.40;2.17;;;11.90;99.30;;;;;;5112759;28;20031;-78
2022/01/02 09:16:17;;;;;;;8.30;2.40;;;11.90;99.20;;;;;;5114021;28;20028;-77
2022/01/02 09:18:43;;;;;;;7.95;2.40;;;11.90;98.90;;;;;;5112624;28;20026;-77
2022/01/02 09:21:09;;;;;;;4.97;1.85;;;12.00;98.90;;;;;;5113063;28;20490;-77
2022/01/02 09:23:36;;;;;;;5.80;2.10;;;12.00;98.70;;;;;;5113990;28;20036;-76
2022/01/02 09:26:01;;;;;;;8.35;2.55;;;12.00;98.70;;;;;;5113840;28;20042;-76
2022/01/02 09:28:27;;;;;;;6.63;2.80;;;12.00;98.60;;;;;;5113762;28;20031;-77
2022/01/02 09:30:53;;;;;;;12.45;2.63;;;12.10;98.20;;;;;;5112940;28;20028;-76
2022/01/02 09:33:18;;;;;;;5.70;2.22;;;12.20;98.50;;;;;;5112944;28;20059;-75
2022/01/02 09:35:45;;;;;;;8.70;2.60;;;12.20;98.50;;;;;;5095659;28;20034;-75
2022/01/02 09:38:11;;;;;;;5.43;2.17;;;12.20;98.40;;;;;;5112466;28;20425;-76
2022/01/02 09:40:37;;;;;;;7.15;2.33;;;12.40;98.50;;;;;;5112490;28;20130;-78
2022/01/02 09:43:03;;;;;;;8.95;2.58;;;12.50;97.80;;;;;;5112808;28;20123;-77
2022/01/02 09:45:33;;;;;;;7.28;2.25;;;12.50;97.60;;;;;;5112505;28;20115;-75
2022/01/02 09:47:59;;;;;;;7.85;2.53;;;12.50;97.70;;;;;;5113847;28;20038;-76
2022/01/02 09:50:25;;;;;;;7.70;2.42;;;12.60;97.50;;;;;;5112982;28;20043;-77
2022/01/02 09:52:51;;;;;;;5.93;2.15;;;12.50;97.20;;;;;;5113469;28;20372;-76
2022/01/02 09:55:17;;;;;;;7.75;2.72;;;12.50;97.30;;;;;;5113520;28;20028;-76
2022/01/02 09:57:49;;;;;;;7.85;2.83;;;12.60;97.20;;;;;;5095719;28;20031;-76
2022/01/02 10:00:16;;;;;;;7.22;2.60;;;12.50;97.10;;;;;;5112503;28;20031;-75
2022/01/02 10:03:06;;;;;;;7.90;3.42;;;12.50;97.10;;;;;;5117308;28;20036;-77
2022/01/02 10:05:55;;;;;;;8.20;3.25;;;12.60;97.00;;;;;;5117756;28;20464;-75
2022/01/02 10:08:26;;;;;;;6.80;2.17;;;12.60;96.90;;;;;;5117722;28;20099;-75
2022/01/02 10:11:24;;;;;;;6.88;2.33;;;12.60;97.00;;;;;;5117541;28;20024;-74
2022/01/02 10:13:56;;;;;;;8.40;2.67;;;12.70;96.90;;;;;;5115956;28;20035;-73
2022/01/02 10:16:33;;;;;;;7.88;2.65;;;13.10;97.60;;;;;;5116404;28;20524;-74
2022/01/02 10:19:19;;;;;;;6.28;2.25;;;13.60;97.80;;;;;;5117488;28;20360;-75
2022/01/02 10:21:54;;;;;;;8.25;2.90;;;14.20;97.10;;;;;;5117371;28;20030;-76
2022/01/02 10:24:26;;;;;;;6.38;2.95;;;14.40;95.50;;;;;;5117122;28;20425;-75
2022/01/02 10:27:14;;;;;;;6.00;2.92;;;14.40;94.30;;;;;;5117030;28;20031;-77
2022/01/02 10:29:46;;;;;;;9.20;3.58;;;14.30;93.20;;;;;;5117038;28;20467;-74
2022/01/02 10:32:32;;;;;;;8.48;2.78;;;14.10;93.30;;;;;;5116205;28;20019;-74
2022/01/02 10:35:12;;;;;;;9.80;3.65;;;14.10;93.60;;;;;;5117495;28;20116;-74
2022/01/02 10:37:38;;;;;;;10.43;3.63;;;14.00;93.50;;;;;;5116681;28;20026;-73
2022/01/02 10:40:22;;;;;;;10.73;3.47;;;13.90;93.00;;;;;;5115726;28;20035;-74
2022/01/02 10:42:47;;;;;;;6.80;3.35;;;13.90;92.80;;;;;;5115496;28;20110;-75
2022/01/02 10:45:50;;;;;;;7.68;3.38;;;13.90;93.20;;;;;;5098456;28;20119;-76
2022/01/02 10:48:28;;;;;;;8.30;3.40;;;13.90;93.30;;;;;;5115086;28;20442;-77
2022/01/02 10:51:15;;;;;;;9.00;3.53;;;14.00;93.20;;;;;;5116253;28;20062;-75
2022/01/02 10:53:54;;;;;;;7.63;3.00;;;14.10;93.30;;;;;;5098784;28;20088;-76
2022/01/02 10:56:25;;;;;;;7.93;3.10;;;14.40;94.00;;;;;;5114921;28;20059;-76
2022/01/02 10:58:51;;;;;;;14.73;3.53;;;14.70;93.40;;;;;;5115469;28;20027;-76
2022/01/02 11:01:18;;;;;;;8.77;2.95;;;14.70;92.10;;;;;;5116765;28;20034;-76
2022/01/02 11:03:47;;;;;;;7.15;3.22;;;14.60;91.90;;;;;;5115992;28;20039;-75
2022/01/02 11:06:26;;;;;;;9.57;3.78;;;14.40;91.70;;;;;;5116572;28;20365;-76
2022/01/02 11:08:55;;;;;;;10.93;3.33;;;14.20;91.80;;;;;;5115525;28;20027;-76
2022/01/02 11:11:21;;;;;;;5.95;2.60;;;14.10;92.00;;;;;;5116369;28;20027;-74
2022/01/02 11:13:48;;;;;;;11.38;3.80;;;13.90;92.30;;;;;;5080803;28;20390;-75
2022/01/02 11:16:14;;;;;;;11.35;3.38;;;13.80;92.60;;;;;;5116209;28;20059;-74
2022/01/02 11:18:40;;;;;;;14.27;3.22;;;13.70;92.80;;;;;;5116162;28;20447;-74
2022/01/02 11:21:11;;;;;;;9.63;3.08;;;13.70;93.10;;;;;;5115265;28;20448;-75
2022/01/02 11:23:44;;;;;;;8.75;3.10;;;13.60;93.30;;;;;;5116342;28;20028;-79
2022/01/02 11:26:35;;;;;;;14.65;3.70;;;13.50;93.40;;;;;;5114928;28;20027;-75
2022/01/02 11:29:01;;;;;;;14.57;3.67;;;13.50;93.60;;;;;;5100504;28;20077;-76
2022/01/02 11:31:31;;;;;;;9.82;2.97;;;13.40;93.60;;;;;;5115609;28;20036;-75
2022/01/02 11:33:58;;;;;;;14.48;3.45;;;13.40;93.90;;;;;;5116014;28;20024;-75
2022/01/02 11:36:27;;;;;;;9.35;3.08;;;13.30;94.00;;;;;;5097962;28;20023;-76
2022/01/02 11:39:13;;;;;;;10.10;3.63;;;13.30;94.20;;;;;;5116248;28;20483;-77
2022/01/02 11:41:44;;;;;;;11.05;2.83;;;13.30;94.30;;;;;;5115661;28;20039;-75
2022/01/02 11:44:11;;;;;;;12.52;3.17;;;13.30;94.40;;;;;;5115839;28;20487;-75
2022/01/02 11:46:53;;;;;;;10.45;2.33;;;13.20;94.50;;;;;;5114355;28;20099;-75
2022/01/02 11:49:36;;;;;;;10.10;2.40;;;13.20;94.60;;;;;;5115941;28;20035;-74
2022/01/02 11:52:22;;;;;;;9.90;2.90;;;13.20;94.70;;;;;;5113995;28;20031;-76
2022/01/02 11:54:50;;;;;;;11.95;3.33;;;13.30;94.80;;;;;;5077354;28;20503;-76
2022/01/02 11:57:15;;;;;;;9.13;2.63;;;13.30;94.90;;;;;;5111301;28;20032;-79
2022/01/02 11:59:44;;;;;;;10.32;2.63;;;13.30;94.90;;;;;;5112959;28;20062;-75
2022/01/02 12:02:12;;;;;;;13.77;3.05;;;13.30;94.80;;;;;;5113786;28;20034;-82
2022/01/02 12:07:34;;;;;;;13.50;2.50;;;13.30;94.90;;;;;;5114637;28;20057;-76
2022/01/02 12:10:20;;;;;;;7.60;2.60;;;13.30;94.90;;;;;;5114781;28;20016;-76
2022/01/02 12:13:06;;;;;;;14.82;3.55;;;13.30;95.00;;;;;;5108047;28;20106;-75
2022/01/02 12:15:34;;;;;;;11.90;3.30;;;13.30;95.00;;;;;;5112196;28;20084;-76
2022/01/02 12:18:19;;;;;;;8.82;2.78;;;13.30;94.90;;;;;;5114568;28;20448;-77
2022/01/02 12:20:51;;;;;;;11.15;2.80;;;13.30;94.90;;;;;;5113846;28;20109;-75
2022/01/02 12:23:34;;;;;;;11.98;2.65;;;13.30;94.90;;;;;;5114351;28;20051;-75
2022/01/02 12:26:12;;;;;;;10.90;2.87;;;13.40;95.00;;;;;;5113382;28;20028;-75
2022/01/02 12:28:42;;;;;;;8.23;2.47;;;13.40;95.00;;;;;;5114651;28;20413;-76
2022/01/02 12:31:10;;;;;;;10.70;2.97;;;13.40;95.10;;;;;;5129517;27;20488;-78
2022/01/02 12:33:36;;;;;;;8.20;2.85;;;13.40;95.00;;;;;;5114673;28;20154;-76
2022/01/02 12:36:12;;;;;;;12.93;2.60;;;13.40;95.00;;;;;;5112949;28;20119;-77
2022/01/02 12:38:49;;;;;;;10.13;3.30;;;13.40;95.00;;;;;;5114736;28;20051;-75
2022/01/02 12:41:18;;;;;;;15.32;3.20;;;13.40;95.00;;;;;;5114689;28;20451;-75
2022/01/02 12:44:15;;;;;;;16.63;3.90;;;13.30;95.10;;;;;;5113244;28;20020;-75
2022/01/02 12:47:01;;;;;;;9.93;3.10;;;13.30;95.20;;;;;;5101601;28;20036;-77
2022/01/02 12:49:40;;;;;;;6.82;2.45;;;13.30;95.30;;;;;;5124469;27;20030;-75
2022/01/02 12:52:11;;;;;;;12.98;3.53;;;13.30;95.30;;;;;;5093066;28;20024;-76
2022/01/02 12:54:39;;;;;;;10.13;3.00;;;13.40;95.30;;;;;;5097677;28;20024;-85
2022/01/02 12:57:08;;;;;;;15.45;2.80;;;13.40;95.40;;;;;;5114095;28;20560;-79
2022/01/02 12:59:38;;;;;;;11.65;3.15;;;13.40;95.40;;;;;;5114399;28;20355;-77
2022/01/02 13:02:05;;;;;;;10.82;3.47;;;13.40;95.40;;;;;;5112694;28;20127;-80
2022/01/02 13:04:38;;;;;;;11.88;3.05;;;13.50;95.30;;;;;;5114351;28;20106;-76